createdAt,value
2016-08-19T00:00:08.591Z,0
2016-08-19T00:01:08.586Z,0
2016-08-19T00:02:08.583Z,0
2016-08-19T00:03:08.588Z,0
2016-08-19T00:04:08.573Z,0
2016-08-19T00:05:08.574Z,0
2016-08-19T00:06:08.562Z,0
2016-08-19T00:07:08.557Z,0
2016-08-19T00:08:08.551Z,0
2016-08-19T00:09:08.539Z,0
2016-08-19T00:10:08.547Z,0
2016-08-19T00:11:08.540Z,0
2016-08-19T00:12:08.527Z,0
2016-08-19T00:13:08.533Z,0
2016-08-19T00:14:08.541Z,0
2016-08-19T00:15:08.517Z,0
2016-08-19T00:16:10.035Z,0
2016-08-19T00:17:08.503Z,0
2016-08-19T00:18:08.500Z,0
2016-08-19T00:19:08.500Z,0
2016-08-19T00:20:08.492Z,0
2016-08-19T00:21:08.484Z,0
2016-08-19T00:22:08.481Z,0
2016-08-19T00:23:08.477Z,0
2016-08-19T00:24:08.467Z,0
2016-08-19T00:25:08.461Z,0
2016-08-19T00:26:08.457Z,0
2016-08-19T00:27:08.449Z,0
2016-08-19T00:28:08.457Z,0
2016-08-19T00:29:08.449Z,0
2016-08-19T00:30:08.437Z,0
2016-08-19T00:31:08.440Z,0
2016-08-19T00:32:08.432Z,0
2016-08-19T00:33:09.111Z,0
2016-08-19T00:34:08.414Z,0
2016-08-19T00:35:08.403Z,0
2016-08-19T00:36:23.727Z,0
2016-08-19T00:37:39.037Z,0
2016-08-19T00:38:09.303Z,0
2016-08-19T00:39:08.840Z,0
2016-08-19T00:40:10.281Z,0
2016-08-19T00:41:09.139Z,0
2016-08-19T00:42:08.371Z,0
2016-08-19T00:43:08.368Z,0
2016-08-19T00:44:08.359Z,0
2016-08-19T00:45:09.410Z,0
2016-08-19T00:47:08.896Z,0
2016-08-19T00:48:23.411Z,0
2016-08-19T00:49:23.905Z,0
2016-08-19T00:50:09.328Z,0
2016-08-19T00:51:08.324Z,0
2016-08-19T00:52:08.313Z,0
2016-08-19T00:53:08.330Z,0
2016-08-19T00:54:08.312Z,0
2016-08-19T00:55:08.302Z,0
2016-08-19T00:56:08.304Z,0
2016-08-19T00:57:08.297Z,0
2016-08-19T01:00:10.312Z,0
2016-08-19T01:01:08.755Z,0
2016-08-19T01:02:09.681Z,0
2016-08-19T01:03:08.630Z,0
2016-08-19T01:04:08.263Z,0
2016-08-19T01:05:08.262Z,0
2016-08-19T01:06:08.244Z,0
2016-08-19T01:07:10.174Z,0
2016-08-19T01:08:10.349Z,0
2016-08-19T01:09:09.139Z,0
2016-08-19T01:10:10.888Z,0
2016-08-19T01:11:08.901Z,0
2016-08-19T01:12:08.211Z,0
2016-08-19T01:13:08.901Z,0
2016-08-19T01:14:08.205Z,0
2016-08-19T01:15:08.190Z,0
2016-08-19T01:16:08.182Z,0
2016-08-19T01:17:08.184Z,0
2016-08-19T01:18:08.172Z,0
2016-08-19T01:19:08.180Z,0
2016-08-19T01:20:08.881Z,0
2016-08-19T01:21:08.162Z,0
2016-08-19T01:22:08.157Z,0
2016-08-19T01:23:08.174Z,0
2016-08-19T01:24:08.149Z,0
2016-08-19T01:25:08.138Z,0
2016-08-19T01:26:08.134Z,0
2016-08-19T01:27:08.131Z,0
2016-08-19T01:28:08.125Z,0
2016-08-19T01:29:08.120Z,0
2016-08-19T01:30:08.110Z,0
2016-08-19T01:31:08.108Z,0
2016-08-19T01:32:08.108Z,0
2016-08-19T01:33:08.107Z,0
2016-08-19T01:34:08.103Z,0
2016-08-19T01:35:08.082Z,0
2016-08-19T01:36:08.081Z,0
2016-08-19T01:37:08.082Z,0
2016-08-19T01:38:08.060Z,0
2016-08-19T01:39:08.070Z,0
2016-08-19T01:40:08.057Z,0
2016-08-19T01:41:08.053Z,0
2016-08-19T01:42:08.053Z,0
2016-08-19T01:43:08.041Z,0
2016-08-19T01:44:08.042Z,0
2016-08-19T01:45:08.033Z,0
2016-08-19T01:46:08.023Z,0
2016-08-19T01:47:08.019Z,0
2016-08-19T01:48:08.010Z,0
2016-08-19T01:49:08.034Z,0
2016-08-19T01:50:08.002Z,0
2016-08-19T01:51:07.997Z,0
2016-08-19T01:52:08.003Z,0
2016-08-19T01:53:07.977Z,0
2016-08-19T01:54:08.779Z,0
2016-08-19T01:55:38.808Z,0
2016-08-19T01:56:24.198Z,0
2016-08-19T01:57:08.965Z,0
2016-08-19T01:58:09.216Z,0
2016-08-19T01:59:08.898Z,0
2016-08-19T02:00:07.949Z,0
2016-08-19T02:01:07.939Z,0
2016-08-19T02:02:07.936Z,0
2016-08-19T02:03:09.441Z,0
2016-08-19T02:04:08.717Z,0
2016-08-19T02:05:23.981Z,0
2016-08-19T02:06:08.420Z,0
2016-08-19T02:07:08.966Z,0
2016-08-19T02:08:08.906Z,0
2016-08-19T02:09:07.900Z,0
2016-08-19T02:10:07.890Z,0
2016-08-19T02:11:07.893Z,0
2016-08-19T02:12:07.880Z,0
2016-08-19T02:13:07.886Z,0
2016-08-19T02:14:07.876Z,0
2016-08-19T02:15:07.877Z,0
2016-08-19T02:16:10.907Z,0
2016-08-19T02:18:09.324Z,0
2016-08-19T02:19:08.306Z,0
2016-08-19T02:20:09.097Z,0
2016-08-19T02:21:09.333Z,0
2016-08-19T02:22:08.471Z,0
2016-08-19T02:23:07.819Z,0
2016-08-19T02:24:07.820Z,0
2016-08-19T02:25:10.848Z,0
2016-08-19T02:26:10.463Z,0
2016-08-19T02:27:11.346Z,0
2016-08-19T02:28:10.382Z,0
2016-08-19T02:29:08.989Z,0
2016-08-19T02:30:08.739Z,0
2016-08-19T02:31:08.157Z,0
2016-08-19T02:32:07.770Z,0
2016-08-19T02:33:07.757Z,0
2016-08-19T02:34:07.755Z,0
2016-08-19T02:35:07.751Z,0
2016-08-19T02:36:07.744Z,0
2016-08-19T02:37:07.743Z,0
2016-08-19T02:38:07.736Z,0
2016-08-19T02:39:08.422Z,0
2016-08-19T02:40:07.721Z,0
2016-08-19T02:41:07.716Z,0
2016-08-19T02:42:07.705Z,0
2016-08-19T02:43:07.701Z,0
2016-08-19T02:44:07.707Z,0
2016-08-19T02:45:07.689Z,0
2016-08-19T02:46:07.688Z,0
2016-08-19T02:47:07.690Z,0
2016-08-19T02:48:07.674Z,0
2016-08-19T02:49:07.668Z,0
2016-08-19T02:50:07.680Z,0
2016-08-19T02:51:07.668Z,0
2016-08-19T02:52:07.659Z,0
2016-08-19T02:53:07.645Z,0
2016-08-19T02:54:07.647Z,0
2016-08-19T02:55:07.642Z,0
2016-08-19T02:56:07.638Z,0
2016-08-19T02:57:07.630Z,0
2016-08-19T02:58:07.626Z,0
2016-08-19T02:59:07.623Z,0
2016-08-19T03:00:07.613Z,0
2016-08-19T03:01:07.615Z,0
2016-08-19T03:02:07.600Z,0
2016-08-19T03:03:07.592Z,0
2016-08-19T03:04:07.594Z,0
2016-08-19T03:05:07.585Z,0
2016-08-19T03:06:07.598Z,0
2016-08-19T03:07:07.580Z,0
2016-08-19T03:08:07.570Z,0
2016-08-19T03:09:07.576Z,0
2016-08-19T03:10:07.563Z,0
2016-08-19T03:11:07.560Z,0
2016-08-19T03:12:08.648Z,0
2016-08-19T03:14:09.410Z,0
2016-08-19T03:15:08.081Z,0
2016-08-19T03:16:08.570Z,0
2016-08-19T03:17:08.075Z,0
2016-08-19T03:18:07.513Z,0
2016-08-19T03:19:07.509Z,0
2016-08-19T03:20:07.505Z,0
2016-08-19T03:21:23.361Z,0
2016-08-19T03:22:23.366Z,0
2016-08-19T03:23:07.934Z,0
2016-08-19T03:24:07.775Z,0
2016-08-19T03:26:08.385Z,0
2016-08-19T03:27:07.819Z,0
2016-08-19T03:28:07.464Z,0
2016-08-19T03:29:07.454Z,0
2016-08-19T03:30:07.453Z,0
2016-08-19T03:31:07.444Z,0
2016-08-19T03:32:07.436Z,0
2016-08-19T03:33:07.436Z,0
2016-08-19T03:35:10.272Z,0
2016-08-19T03:36:11.548Z,0
2016-08-19T03:37:10.878Z,0
2016-08-19T03:38:09.164Z,0
2016-08-19T03:39:07.402Z,0
2016-08-19T03:40:07.397Z,0
2016-08-19T03:41:07.385Z,0
2016-08-19T03:42:07.381Z,0
2016-08-19T03:45:10.060Z,5
2016-08-19T03:46:09.806Z,5
2016-08-19T03:47:08.378Z,5
2016-08-19T03:48:07.353Z,5
2016-08-19T03:49:07.344Z,5
2016-08-19T03:50:07.344Z,5
2016-08-19T03:51:07.341Z,5
2016-08-19T03:52:07.333Z,5
2016-08-19T03:53:07.316Z,5
2016-08-19T03:54:07.322Z,10
2016-08-19T03:55:07.305Z,10
2016-08-19T03:56:07.302Z,10
2016-08-19T03:57:07.300Z,10
2016-08-19T03:58:07.299Z,10
2016-08-19T03:59:07.292Z,15
2016-08-19T04:00:07.278Z,15
2016-08-19T04:01:07.280Z,15
2016-08-19T04:02:07.285Z,15
2016-08-19T04:03:07.273Z,20
2016-08-19T04:04:07.267Z,20
2016-08-19T04:05:07.253Z,25
2016-08-19T04:06:07.248Z,25
2016-08-19T04:07:07.252Z,25
2016-08-19T04:08:07.237Z,30
2016-08-19T04:09:07.236Z,30
2016-08-19T04:10:07.237Z,35
2016-08-19T04:11:07.223Z,35
2016-08-19T04:12:07.230Z,40
2016-08-19T04:15:07.198Z,45
2016-08-19T04:17:10.248Z,50
2016-08-19T04:18:10.228Z,55
2016-08-19T04:19:14.675Z,50
2016-08-19T04:20:11.738Z,55
2016-08-19T04:22:10.613Z,60
2016-08-19T04:24:07.157Z,65
2016-08-19T04:25:07.152Z,65
2016-08-19T04:26:07.150Z,70
2016-08-19T04:27:07.137Z,70
2016-08-19T04:28:07.137Z,75
2016-08-19T04:29:07.128Z,80
2016-08-19T04:31:08.567Z,80
2016-08-19T04:33:08.200Z,85
2016-08-19T04:34:07.788Z,90
2016-08-19T04:35:07.894Z,90
2016-08-19T04:36:07.490Z,95
2016-08-19T04:37:07.082Z,100
2016-08-19T04:38:07.772Z,100
2016-08-19T04:39:08.375Z,100
2016-08-19T04:40:21.976Z,105
2016-08-19T04:41:07.915Z,110
2016-08-19T04:42:22.168Z,110
2016-08-19T04:43:07.557Z,115
2016-08-19T04:44:08.407Z,120
2016-08-19T04:46:07.084Z,125
2016-08-19T04:48:07.039Z,140
2016-08-19T04:49:07.017Z,160
2016-08-19T04:50:07.014Z,170
2016-08-19T04:51:07.011Z,185
2016-08-19T04:53:08.644Z,200
2016-08-19T04:54:10.579Z,215
2016-08-19T04:55:10.529Z,220
2016-08-19T04:56:07.227Z,225
2016-08-19T04:57:07.921Z,235
2016-08-19T04:58:06.998Z,245
2016-08-19T04:59:06.977Z,245
2016-08-19T05:00:06.969Z,255
2016-08-19T05:01:09.696Z,265
2016-08-19T05:03:09.157Z,275
2016-08-19T05:04:09.524Z,285
2016-08-19T05:05:08.539Z,290
2016-08-19T05:06:07.383Z,290
2016-08-19T05:07:06.954Z,300
2016-08-19T05:08:06.949Z,305
2016-08-19T05:09:07.105Z,310
2016-08-19T05:10:06.942Z,315
2016-08-19T05:11:06.939Z,325
2016-08-19T05:12:06.940Z,325
2016-08-19T05:13:07.634Z,335
2016-08-19T05:14:06.940Z,335
2016-08-19T05:15:06.950Z,345
2016-08-19T05:16:06.930Z,345
2016-08-19T05:17:06.939Z,350
2016-08-19T05:18:06.936Z,365
2016-08-19T05:19:06.930Z,375
2016-08-19T05:20:06.938Z,385
2016-08-19T05:21:06.927Z,390
2016-08-19T05:22:06.940Z,405
2016-08-19T05:23:06.936Z,420
2016-08-19T05:24:06.940Z,425
2016-08-19T05:25:06.936Z,435
2016-08-19T05:26:06.942Z,440
2016-08-19T05:27:06.936Z,450
2016-08-19T05:28:06.945Z,450
2016-08-19T05:29:06.935Z,455
2016-08-19T05:30:06.957Z,465
2016-08-19T05:31:06.937Z,470
2016-08-19T05:32:07.646Z,480
2016-08-19T05:33:06.947Z,485
2016-08-19T05:34:06.958Z,500
2016-08-19T05:35:06.963Z,505
2016-08-19T05:36:06.957Z,500
2016-08-19T05:37:06.965Z,505
2016-08-19T05:38:06.981Z,515
2016-08-19T05:39:06.988Z,520
2016-08-19T05:40:06.987Z,530
2016-08-19T05:41:06.984Z,535
2016-08-19T05:42:06.998Z,545
2016-08-19T05:43:06.985Z,560
2016-08-19T05:44:07.000Z,565
2016-08-19T05:45:07.004Z,575
2016-08-19T05:46:07.010Z,585
2016-08-19T05:47:07.013Z,590
2016-08-19T05:48:37.653Z,605
2016-08-19T05:49:22.544Z,610
2016-08-19T05:50:22.999Z,615
2016-08-19T05:51:22.051Z,615
2016-08-19T05:52:07.542Z,615
2016-08-19T05:53:07.800Z,625
2016-08-19T05:54:07.720Z,635
2016-08-19T05:55:07.069Z,650
2016-08-19T05:56:07.067Z,690
2016-08-19T05:57:07.980Z,725
2016-08-19T05:58:22.106Z,740
2016-08-19T05:59:07.942Z,745
2016-08-19T06:00:08.354Z,750
2016-08-19T06:01:07.905Z,755
2016-08-19T06:02:22.491Z,775
2016-08-19T06:03:07.127Z,805
2016-08-19T06:04:07.150Z,795
2016-08-19T06:05:07.137Z,815
2016-08-19T06:06:07.142Z,820
2016-08-19T06:07:07.164Z,830
2016-08-19T06:08:07.163Z,845
2016-08-19T06:09:07.169Z,840
2016-08-19T06:10:08.700Z,850
2016-08-19T06:12:09.669Z,885
2016-08-19T06:13:10.153Z,885
2016-08-19T06:14:07.487Z,895
2016-08-19T06:15:07.241Z,900
2016-08-19T06:16:07.387Z,915
2016-08-19T06:17:07.322Z,935
2016-08-19T06:18:07.263Z,950
2016-08-19T06:19:07.268Z,965
2016-08-19T06:20:10.920Z,980
2016-08-19T06:21:10.452Z,995
2016-08-19T06:22:09.441Z,1005
2016-08-19T06:23:09.143Z,1010
2016-08-19T06:24:08.635Z,1010
2016-08-19T06:25:07.578Z,1020
2016-08-19T06:26:07.714Z,1025
2016-08-19T06:27:07.407Z,1035
2016-08-19T06:28:07.360Z,1040
2016-08-19T06:29:07.367Z,1055
2016-08-19T06:30:08.074Z,1060
2016-08-19T06:31:07.394Z,1075
2016-08-19T06:32:07.396Z,1100
2016-08-19T06:33:07.415Z,1115
2016-08-19T06:34:07.424Z,1120
2016-08-19T06:35:07.441Z,1135
2016-08-19T06:36:07.454Z,1140
2016-08-19T06:37:07.462Z,1150
2016-08-19T06:38:07.464Z,1170
2016-08-19T06:39:07.480Z,1180
2016-08-19T06:40:07.499Z,1185
2016-08-19T06:41:07.516Z,1190
2016-08-19T06:42:07.514Z,1200
2016-08-19T06:43:08.230Z,1205
2016-08-19T06:44:07.543Z,1210
2016-08-19T06:45:07.554Z,1215
2016-08-19T06:46:07.571Z,1225
2016-08-19T06:47:07.582Z,1240
2016-08-19T06:48:07.601Z,1255
2016-08-19T06:49:07.604Z,1275
2016-08-19T06:50:07.611Z,1295
2016-08-19T06:51:07.635Z,1325
2016-08-19T06:52:07.644Z,1345
2016-08-19T06:53:07.811Z,1360
2016-08-19T06:54:07.665Z,1365
2016-08-19T06:55:07.680Z,1370
2016-08-19T06:56:07.691Z,1375
2016-08-19T06:57:07.873Z,1390
2016-08-19T06:58:07.724Z,1405
2016-08-19T06:59:08.430Z,1420
2016-08-19T07:00:07.742Z,1440
2016-08-19T07:01:07.759Z,1435
2016-08-19T07:02:07.781Z,1425
2016-08-19T07:03:08.492Z,1395
2016-08-19T07:04:08.495Z,1355
2016-08-19T07:05:07.816Z,1335
2016-08-19T07:06:22.842Z,1355
2016-08-19T07:07:09.349Z,1365
2016-08-19T07:08:08.314Z,1390
2016-08-19T07:09:08.119Z,1395
2016-08-19T07:10:09.044Z,1395
2016-08-19T07:11:08.607Z,1405
2016-08-19T07:12:08.470Z,1420
2016-08-19T07:13:08.088Z,1445
2016-08-19T07:14:07.955Z,1475
2016-08-19T07:16:08.522Z,1520
2016-08-19T07:17:08.894Z,1530
2016-08-19T07:18:08.859Z,1545
2016-08-19T07:19:08.120Z,1535
2016-08-19T07:20:09.627Z,1550
2016-08-19T07:21:08.061Z,1555
2016-08-19T07:22:08.066Z,1545
2016-08-19T07:23:08.077Z,1510
2016-08-19T07:24:08.101Z,1435
2016-08-19T07:25:08.122Z,1375
2016-08-19T07:26:08.119Z,1390
2016-08-19T07:27:08.126Z,1400
2016-08-19T07:28:08.150Z,1410
2016-08-19T07:29:11.479Z,1430
2016-08-19T07:30:10.697Z,1455
2016-08-19T07:31:11.895Z,1470
2016-08-19T07:32:09.552Z,1495
2016-08-19T07:33:09.056Z,1510
2016-08-19T07:34:08.237Z,1550
2016-08-19T07:35:08.252Z,1565
2016-08-19T07:36:08.265Z,1600
2016-08-19T07:37:08.288Z,1645
2016-08-19T07:39:10.301Z,1735
2016-08-19T07:40:11.655Z,1730
2016-08-19T07:41:09.504Z,1715
2016-08-19T07:42:09.241Z,1655
2016-08-19T07:43:08.381Z,1615
2016-08-19T07:44:08.723Z,1590
2016-08-19T07:45:08.618Z,1760
2016-08-19T07:46:08.418Z,2045
2016-08-19T07:47:08.434Z,2215
2016-08-19T07:48:08.451Z,2295
2016-08-19T07:49:08.476Z,2335
2016-08-19T07:50:09.182Z,2360
2016-08-19T07:51:08.510Z,2385
2016-08-19T07:52:08.516Z,2375
2016-08-19T07:53:08.532Z,2385
2016-08-19T07:54:08.539Z,2410
2016-08-19T07:55:09.249Z,2435
2016-08-19T07:56:09.293Z,2490
2016-08-19T07:57:08.695Z,2465
2016-08-19T07:58:09.304Z,2490
2016-08-19T07:59:08.628Z,2515
2016-08-19T08:00:08.639Z,2500
2016-08-19T08:01:08.663Z,2445
2016-08-19T08:02:08.678Z,2420
2016-08-19T08:03:08.692Z,2430
2016-08-19T08:04:08.713Z,2400
2016-08-19T08:05:10.125Z,2345
2016-08-19T08:06:08.739Z,2315
2016-08-19T08:07:08.763Z,2305
2016-08-19T08:08:08.781Z,2025
2016-08-19T08:09:08.797Z,1685
2016-08-19T08:10:08.820Z,1645
2016-08-19T08:11:08.820Z,1655
2016-08-19T08:12:08.852Z,1660
2016-08-19T08:13:08.862Z,1670
2016-08-19T08:14:08.877Z,1680
2016-08-19T08:15:08.901Z,1685
2016-08-19T08:16:08.910Z,1705
2016-08-19T08:17:08.938Z,1725
2016-08-19T08:18:08.953Z,1720
2016-08-19T08:19:08.968Z,1725
2016-08-19T08:20:08.996Z,1725
2016-08-19T08:21:08.991Z,1695
2016-08-19T08:22:09.016Z,1695
2016-08-19T08:23:09.033Z,1695
2016-08-19T08:24:39.583Z,1710
2016-08-19T08:25:10.705Z,1705
2016-08-19T08:26:10.227Z,1715
2016-08-19T08:27:10.041Z,1715
2016-08-19T08:28:24.036Z,1715
2016-08-19T08:29:09.104Z,1720
2016-08-19T08:30:09.541Z,1730
2016-08-19T08:31:09.556Z,1745
2016-08-19T08:32:09.153Z,1720
2016-08-19T08:33:24.098Z,1750
2016-08-19T08:34:11.147Z,1645
2016-08-19T08:36:24.190Z,370
2016-08-19T08:37:24.847Z,360
2016-08-19T08:38:09.941Z,355
2016-08-19T08:39:09.262Z,355
2016-08-19T08:40:09.264Z,350
2016-08-19T08:41:10.024Z,350
2016-08-19T08:42:09.289Z,355
2016-08-19T08:43:09.299Z,350
2016-08-19T08:44:09.324Z,350
2016-08-19T08:45:09.317Z,350
2016-08-19T08:46:09.342Z,345
2016-08-19T08:47:12.753Z,345
2016-08-19T08:48:12.474Z,345
2016-08-19T08:49:10.619Z,340
2016-08-19T08:50:11.861Z,340
2016-08-19T08:51:11.614Z,340
2016-08-19T08:52:10.442Z,340
2016-08-19T08:53:09.407Z,340
2016-08-19T08:54:09.409Z,340
2016-08-19T08:55:09.420Z,340
2016-08-19T08:57:11.965Z,335
2016-08-19T08:58:10.452Z,330
2016-08-19T08:59:11.919Z,330
2016-08-19T09:00:09.452Z,330
2016-08-19T09:01:09.482Z,330
2016-08-19T09:02:09.623Z,325
2016-08-19T09:03:09.468Z,325
2016-08-19T09:04:09.501Z,320
2016-08-19T09:05:09.488Z,320
2016-08-19T09:06:09.494Z,320
2016-08-19T09:07:09.503Z,315
2016-08-19T09:08:09.505Z,315
2016-08-19T09:09:09.526Z,315
2016-08-19T09:10:09.519Z,315
2016-08-19T09:11:09.525Z,315
2016-08-19T09:12:09.529Z,315
2016-08-19T09:13:09.535Z,310
2016-08-19T09:14:09.554Z,310
2016-08-19T09:15:09.539Z,310
2016-08-19T09:16:09.551Z,310
2016-08-19T09:17:09.555Z,310
2016-08-19T09:18:09.560Z,310
2016-08-19T09:19:09.562Z,310
2016-08-19T09:20:09.561Z,310
2016-08-19T09:21:09.591Z,315
2016-08-19T09:22:09.572Z,310
2016-08-19T09:23:09.576Z,310
2016-08-19T09:24:09.579Z,310
2016-08-19T09:25:09.587Z,310
2016-08-19T09:30:09.608Z,305
2016-08-19T09:31:10.324Z,305
2016-08-19T09:32:09.627Z,305
2016-08-19T09:33:11.141Z,300
2016-08-19T09:34:09.622Z,300
2016-08-19T09:35:09.630Z,300
2016-08-19T09:36:09.631Z,300
2016-08-19T09:37:09.637Z,295
2016-08-19T09:38:09.641Z,295
2016-08-19T09:39:09.643Z,295
2016-08-19T09:40:09.636Z,295
2016-08-19T09:41:09.649Z,295
2016-08-19T09:42:10.354Z,295
2016-08-19T09:43:10.110Z,295
2016-08-19T09:44:24.825Z,290
2016-08-19T09:45:39.950Z,290
2016-08-19T09:46:10.710Z,290
2016-08-19T09:47:09.975Z,290
2016-08-19T09:48:10.223Z,290
2016-08-19T09:49:09.879Z,285
2016-08-19T09:50:09.676Z,285
2016-08-19T09:51:10.027Z,285
2016-08-19T09:52:25.497Z,285
2016-08-19T09:53:10.189Z,285
2016-08-19T09:54:10.288Z,285
2016-08-19T09:55:10.040Z,285
2016-08-19T09:56:13.338Z,280
2016-08-19T09:57:10.413Z,280
2016-08-19T09:58:10.698Z,280
2016-08-19T09:59:09.707Z,280
2016-08-19T10:00:22.446Z,280
2016-08-19T10:01:12.657Z,285
2016-08-19T10:02:10.421Z,285
2016-08-19T10:03:09.719Z,285
2016-08-19T10:04:09.723Z,285
2016-08-19T10:05:11.494Z,285
2016-08-19T10:06:14.055Z,280
2016-08-19T10:07:12.490Z,280
2016-08-19T10:08:10.978Z,280
2016-08-19T10:09:23.809Z,280
2016-08-19T10:10:11.029Z,280
2016-08-19T10:11:10.145Z,280
2016-08-19T10:12:10.008Z,280
2016-08-19T10:13:09.748Z,275
2016-08-19T10:15:13.343Z,280
2016-08-19T10:16:12.151Z,280
2016-08-19T10:17:10.925Z,280
2016-08-19T10:18:09.762Z,280
2016-08-19T10:19:11.416Z,280
2016-08-19T10:20:10.339Z,280
2016-08-19T10:21:09.765Z,280
2016-08-19T10:22:10.483Z,280
2016-08-19T10:23:09.781Z,280
2016-08-19T10:24:12.881Z,280
2016-08-19T10:25:11.319Z,280
2016-08-19T10:26:09.780Z,295
2016-08-19T10:27:09.794Z,300
2016-08-19T10:28:12.831Z,300
2016-08-19T10:29:09.800Z,325
2016-08-19T10:30:09.801Z,335
2016-08-19T10:31:09.809Z,295
2016-08-19T10:32:16.079Z,295
2016-08-19T10:33:09.812Z,310
2016-08-19T10:34:09.813Z,325
2016-08-19T10:35:09.821Z,295
2016-08-19T10:36:09.824Z,280
2016-08-19T10:37:09.818Z,280
2016-08-19T10:38:09.826Z,275
2016-08-19T10:39:09.838Z,275
2016-08-19T10:40:09.834Z,275
2016-08-19T10:41:09.844Z,280
2016-08-19T10:42:09.847Z,280
2016-08-19T10:43:09.839Z,275
2016-08-19T10:44:09.850Z,275
2016-08-19T10:45:09.850Z,275
2016-08-19T10:46:09.851Z,275
2016-08-19T10:47:09.860Z,270
2016-08-19T10:48:09.858Z,270
2016-08-19T10:49:09.853Z,270
2016-08-19T10:50:09.866Z,285
2016-08-19T10:51:09.869Z,300
2016-08-19T10:52:09.883Z,320
2016-08-19T10:53:18.748Z,310
2016-08-19T10:54:11.090Z,295
2016-08-19T10:55:09.881Z,280
2016-08-19T10:56:12.931Z,275
2016-08-19T10:57:09.895Z,275
2016-08-19T10:58:09.899Z,275
2016-08-19T10:59:09.903Z,270
2016-08-19T11:00:09.901Z,270
2016-08-19T11:01:25.792Z,270
2016-08-19T11:02:10.755Z,275
2016-08-19T11:03:10.860Z,275
2016-08-19T11:04:10.965Z,265
2016-08-19T11:05:10.818Z,260
2016-08-19T11:06:10.029Z,265
2016-08-19T11:07:10.724Z,260
2016-08-19T11:08:09.934Z,260
2016-08-19T11:09:09.938Z,265
2016-08-19T11:10:11.684Z,275
2016-08-19T11:11:25.067Z,290
2016-08-19T11:12:11.495Z,285
2016-08-19T11:13:25.028Z,285
2016-08-19T11:14:09.948Z,275
2016-08-19T11:15:11.213Z,270
2016-08-19T11:16:09.957Z,270
2016-08-19T11:17:09.980Z,270
2016-08-19T11:18:09.968Z,270
2016-08-19T11:19:09.999Z,280
2016-08-19T11:20:09.990Z,280
2016-08-19T11:21:09.982Z,280
2016-08-19T11:22:09.998Z,290
2016-08-19T11:23:12.432Z,285
2016-08-19T11:24:11.625Z,280
2016-08-19T11:25:12.190Z,280
2016-08-19T11:26:11.011Z,280
2016-08-19T11:27:11.664Z,285
2016-08-19T11:28:11.231Z,285
2016-08-19T11:29:10.419Z,280
2016-08-19T11:30:10.733Z,265
2016-08-19T11:31:10.034Z,260
2016-08-19T11:32:11.558Z,260
2016-08-19T11:34:12.125Z,275
2016-08-19T11:35:11.216Z,280
2016-08-19T11:36:12.017Z,275
2016-08-19T11:37:10.733Z,270
2016-08-19T11:38:10.044Z,270
2016-08-19T11:39:10.048Z,270
2016-08-19T11:40:10.838Z,270
2016-08-19T11:41:10.067Z,275
2016-08-19T11:42:10.069Z,285
2016-08-19T11:43:10.073Z,300
2016-08-19T11:44:10.062Z,310
2016-08-19T11:45:10.075Z,300
2016-08-19T11:46:10.083Z,290
2016-08-19T11:47:10.103Z,290
2016-08-19T11:48:10.290Z,285
2016-08-19T11:49:10.094Z,295
2016-08-19T11:50:10.110Z,310
2016-08-19T11:51:10.103Z,340
2016-08-19T11:52:10.100Z,350
2016-08-19T11:53:10.116Z,335
2016-08-19T11:54:10.114Z,335
2016-08-19T11:55:10.135Z,330
2016-08-19T11:56:10.120Z,325
2016-08-19T11:57:10.231Z,310
2016-08-19T11:58:10.134Z,300
2016-08-19T11:59:10.132Z,285
2016-08-19T12:00:10.154Z,280
2016-08-19T12:01:10.142Z,275
2016-08-19T12:02:10.148Z,275
2016-08-19T12:03:10.151Z,270
2016-08-19T12:04:10.157Z,275
2016-08-19T12:05:10.162Z,270
2016-08-19T12:06:10.173Z,270
2016-08-19T12:07:10.169Z,265
2016-08-19T12:08:10.179Z,260
2016-08-19T12:09:10.184Z,260
2016-08-19T12:10:10.180Z,255
2016-08-19T12:11:10.191Z,260
2016-08-19T12:12:10.213Z,260
2016-08-19T12:13:12.120Z,265
2016-08-19T12:14:10.209Z,260
2016-08-19T12:15:10.931Z,265
2016-08-19T12:16:10.918Z,270
2016-08-19T12:17:10.225Z,280
2016-08-19T12:18:10.219Z,305
2016-08-19T12:19:25.894Z,315
2016-08-19T12:20:11.583Z,315
2016-08-19T12:21:26.553Z,300
2016-08-19T12:22:25.154Z,290
2016-08-19T12:23:11.686Z,280
2016-08-19T12:24:10.702Z,270
2016-08-19T12:25:10.268Z,265
2016-08-19T12:26:10.265Z,265
2016-08-19T12:27:10.259Z,265
2016-08-19T12:28:26.040Z,260
2016-08-19T12:29:11.065Z,255
2016-08-19T12:30:11.924Z,260
2016-08-19T12:31:11.081Z,260
2016-08-19T12:32:12.897Z,260
2016-08-19T12:33:10.296Z,255
2016-08-19T12:34:10.301Z,255
2016-08-19T12:35:10.295Z,250
2016-08-19T12:36:10.299Z,265
2016-08-19T12:37:10.307Z,275
2016-08-19T12:38:10.319Z,285
2016-08-19T12:39:10.307Z,280
2016-08-19T12:40:10.322Z,275
2016-08-19T12:41:12.211Z,270
2016-08-19T12:42:13.218Z,275
2016-08-19T12:43:14.288Z,285
2016-08-19T12:44:13.476Z,280
2016-08-19T12:45:11.490Z,265
2016-08-19T12:46:11.957Z,255
2016-08-19T12:47:11.378Z,250
2016-08-19T12:48:10.357Z,250
2016-08-19T12:49:10.420Z,250
2016-08-19T12:50:12.615Z,250
2016-08-19T12:51:12.775Z,250
2016-08-19T12:52:13.960Z,250
2016-08-19T12:53:13.345Z,245
2016-08-19T12:54:11.635Z,245
2016-08-19T12:55:10.396Z,240
2016-08-19T12:56:10.393Z,240
2016-08-19T12:57:10.400Z,245
2016-08-19T12:58:10.418Z,250
2016-08-19T12:59:10.415Z,250
2016-08-19T13:00:10.409Z,250
2016-08-19T13:01:10.414Z,245
2016-08-19T13:02:11.114Z,245
2016-08-19T13:03:10.419Z,240
2016-08-19T13:04:10.418Z,280
2016-08-19T13:05:10.446Z,325
2016-08-19T13:06:10.437Z,325
2016-08-19T13:07:10.444Z,315
2016-08-19T13:08:10.443Z,290
2016-08-19T13:09:10.475Z,265
2016-08-19T13:10:10.456Z,255
2016-08-19T13:11:10.460Z,245
2016-08-19T13:12:10.467Z,240
2016-08-19T13:13:10.471Z,240
2016-08-19T13:14:10.491Z,240
2016-08-19T13:15:15.037Z,235
2016-08-19T13:16:15.444Z,230
2016-08-19T13:17:17.779Z,230
2016-08-19T13:19:10.491Z,230
2016-08-19T13:20:14.239Z,230
2016-08-19T13:21:10.503Z,230
2016-08-19T13:22:10.509Z,230
2016-08-19T13:23:10.513Z,235
2016-08-19T13:24:10.522Z,235
2016-08-19T13:25:10.528Z,240
2016-08-19T13:26:10.530Z,245
2016-08-19T13:28:10.538Z,255
2016-08-19T13:29:10.545Z,255
2016-08-19T13:30:10.567Z,255
2016-08-19T13:31:10.553Z,255
2016-08-19T13:32:10.558Z,250
2016-08-19T13:33:10.565Z,250
2016-08-19T13:34:10.565Z,245
2016-08-19T13:35:10.576Z,240
2016-08-19T13:36:10.569Z,240
2016-08-19T13:38:11.631Z,240
2016-08-19T13:39:26.107Z,235
2016-08-19T13:40:11.538Z,235
2016-08-19T13:41:10.618Z,230
2016-08-19T13:42:10.612Z,230
2016-08-19T13:43:11.309Z,235
2016-08-19T13:44:10.610Z,235
2016-08-19T13:45:10.617Z,230
2016-08-19T13:47:10.729Z,230
2016-08-19T13:48:26.551Z,225
2016-08-19T13:49:25.753Z,225
2016-08-19T13:50:11.033Z,225
2016-08-19T13:51:23.525Z,220
2016-08-19T13:52:10.648Z,225
2016-08-19T13:53:10.655Z,225
2016-08-19T13:54:12.174Z,220
2016-08-19T13:55:10.658Z,220
2016-08-19T13:56:10.678Z,220
2016-08-19T13:57:10.844Z,220
2016-08-19T13:58:10.691Z,220
2016-08-19T14:00:19.083Z,215
2016-08-19T14:01:12.673Z,215
2016-08-19T14:02:12.441Z,215
2016-08-19T14:03:11.815Z,215
2016-08-19T14:04:10.709Z,215
2016-08-19T14:05:10.718Z,215
2016-08-19T14:06:11.133Z,215
2016-08-19T14:07:10.743Z,215
2016-08-19T14:08:13.208Z,215
2016-08-19T14:09:19.837Z,215
2016-08-19T14:10:11.940Z,215
2016-08-19T14:11:12.253Z,210
2016-08-19T14:12:11.742Z,210
2016-08-19T14:13:10.737Z,210
2016-08-19T14:14:10.750Z,210
2016-08-19T14:15:10.756Z,215
2016-08-19T14:16:11.451Z,215
2016-08-19T14:17:10.759Z,215
2016-08-19T14:18:10.775Z,210
2016-08-19T14:19:10.773Z,210
2016-08-19T14:20:10.776Z,210
2016-08-19T14:21:13.111Z,210
2016-08-19T14:22:10.780Z,210
2016-08-19T14:23:10.792Z,210
2016-08-19T14:24:13.729Z,210
2016-08-19T14:25:13.735Z,215
2016-08-19T14:26:12.322Z,215
2016-08-19T14:27:12.322Z,215
2016-08-19T14:29:12.333Z,220
2016-08-19T14:30:10.813Z,225
2016-08-19T14:31:10.823Z,225
2016-08-19T14:32:10.817Z,230
2016-08-19T14:33:10.826Z,230
2016-08-19T14:34:13.865Z,230
2016-08-19T14:35:10.837Z,230